Time;durP1;ratioP1;P1;durP2;ratioP2;P2;SDS_P1;SDS_P2;PMS_P1;PMS_P2;Temp;Humidity;BMP_temperature;BMP_pressure;BME280_temperature;BME280_humidity;BME280_pressure;Samples;Min_cycle;Max_cycle;Signal;HPM_P1;HPM_P2
2023/05/13 00:00:32;;;;;;;10.10;7.18;;;;;;;;;;5051790;28;20041;-69
2023/05/13 00:02:58;;;;;;;11.13;6.35;;;;;;;;;;5066990;28;20482;-71
2023/05/13 00:05:23;;;;;;;10.60;6.78;;;;;;;;;;5051639;28;20037;-71
2023/05/13 00:07:49;;;;;;;11.02;7.30;;;;;;;;;;5052011;28;20137;-71
2023/05/13 00:10:15;;;;;;;11.95;6.15;;;;;;;;;;5051373;28;20497;-71
2023/05/13 00:12:41;;;;;;;14.77;5.75;;;;;;;;;;5051839;28;20025;-71
2023/05/13 00:15:08;;;;;;;8.65;5.55;;;;;;;;;;5051637;28;20025;-71
2023/05/13 00:17:33;;;;;;;13.15;6.07;;;;;;;;;;5051443;28;20017;-71
2023/05/13 00:20:00;;;;;;;10.45;5.47;;;;;;;;;;5051234;28;20043;-71
2023/05/13 00:22:25;;;;;;;13.07;5.88;;;;;;;;;;5051588;28;20049;-71
2023/05/13 00:24:51;;;;;;;14.95;6.00;;;;;;;;;;5051620;28;20094;-71
2023/05/13 00:27:17;;;;;;;11.85;5.53;;;;;;;;;;5051422;28;20451;-71
2023/05/13 00:29:42;;;;;;;9.73;5.50;;;;;;;;;;5051156;28;20036;-71
2023/05/13 00:32:08;;;;;;;13.88;6.00;;;;;;;;;;5051191;28;20029;-70
2023/05/13 00:34:34;;;;;;;10.55;5.78;;;;;;;;;;5049796;28;20071;-70
2023/05/13 00:36:59;;;;;;;10.20;5.60;;;;;;;;;;5049950;28;20398;-70
2023/05/13 00:39:28;;;;;;;11.20;6.32;;;;;;;;;;5050821;28;20048;-70
2023/05/13 00:41:54;;;;;;;12.75;6.00;;;;;;;;;;5051331;28;20017;-70
2023/05/13 00:44:20;;;;;;;9.90;5.80;;;;;;;;;;5049506;28;20029;-70
2023/05/13 00:46:45;;;;;;;8.73;5.47;;;;;;;;;;5050291;28;20056;-70
2023/05/13 00:49:11;;;;;;;15.20;5.90;;;;;;;;;;5049392;28;20072;-70
2023/05/13 00:51:37;;;;;;;13.68;5.85;;;;;;;;;;5051121;28;20032;-70
2023/05/13 00:54:04;;;;;;;11.25;5.82;;;;;;;;;;5051054;28;20115;-70
2023/05/13 00:56:29;;;;;;;15.30;6.30;;;;;;;;;;5051057;28;20112;-71
2023/05/13 00:58:55;;;;;;;9.00;6.28;;;;;;;;;;5050707;28;20063;-70
2023/05/13 01:01:24;;;;;;;11.30;5.78;;;;;;;;;;5051002;28;20021;-70
2023/05/13 01:04:24;;;;;;;12.82;6.00;;;;;;;;;;5050807;28;20036;-70
2023/05/13 01:07:10;;;;;;;12.07;6.32;;;;;;;;;;5050995;28;20091;-70
2023/05/13 01:10:04;;;;;;;8.95;6.07;;;;;;;;;;5049440;28;20037;-70
2023/05/13 01:12:39;;;;;;;15.43;6.60;;;;;;;;;;5049554;28;20040;-70
2023/05/13 01:15:18;;;;;;;12.50;6.30;;;;;;;;;;5050856;28;20041;-70
2023/05/13 01:17:53;;;;;;;8.20;5.70;;;;;;;;;;5048001;28;20047;-70
2023/05/13 01:20:22;;;;;;;10.68;7.15;;;;;;;;;;5045770;28;20124;-70
2023/05/13 01:22:47;;;;;;;7.55;5.60;;;;;;;;;;5057414;28;20020;-70
2023/05/13 01:25:14;;;;;;;10.00;6.22;;;;;;;;;;5049545;28;20036;-70
2023/05/13 01:27:40;;;;;;;11.02;7.20;;;;;;;;;;5049743;28;20370;-70
2023/05/13 01:30:08;;;;;;;9.73;5.75;;;;;;;;;;5049507;28;20402;-70
2023/05/13 01:32:35;;;;;;;11.48;5.95;;;;;;;;;;5031681;28;20423;-70
2023/05/13 01:35:02;;;;;;;8.30;5.70;;;;;;;;;;5050893;28;20523;-70
2023/05/13 01:37:29;;;;;;;9.10;5.78;;;;;;;;;;5033453;28;20041;-70
2023/05/13 01:39:55;;;;;;;9.52;6.32;;;;;;;;;;5043242;28;20029;-71
2023/05/13 01:42:28;;;;;;;8.45;5.45;;;;;;;;;;5033218;28;20036;-70
2023/05/13 01:44:54;;;;;;;13.35;6.50;;;;;;;;;;5049602;28;20079;-70
2023/05/13 01:47:20;;;;;;;10.50;6.28;;;;;;;;;;5049369;28;20056;-70
2023/05/13 01:49:46;;;;;;;14.98;6.45;;;;;;;;;;5049115;28;20138;-70
2023/05/13 01:52:12;;;;;;;13.18;7.20;;;;;;;;;;5046319;28;20113;-70
2023/05/13 01:54:38;;;;;;;12.32;6.65;;;;;;;;;;5047657;28;20243;-70
2023/05/13 01:57:08;;;;;;;9.98;6.05;;;;;;;;;;5047627;28;20420;-70
2023/05/13 01:59:35;;;;;;;9.85;6.57;;;;;;;;;;5051439;28;20029;-70
2023/05/13 02:02:00;;;;;;;15.27;6.85;;;;;;;;;;5053107;28;20382;-70
2023/05/13 02:04:26;;;;;;;10.90;7.03;;;;;;;;;;5036813;28;20450;-70
2023/05/13 02:06:52;;;;;;;12.60;7.38;;;;;;;;;;5053085;28;20025;-70
2023/05/13 02:09:18;;;;;;;16.17;8.32;;;;;;;;;;5052431;28;20082;-70
2023/05/13 02:11:44;;;;;;;13.50;7.07;;;;;;;;;;5054407;28;20033;-70
2023/05/13 02:14:10;;;;;;;20.25;9.60;;;;;;;;;;5052836;28;20086;-70
2023/05/13 02:16:36;;;;;;;22.08;9.30;;;;;;;;;;5054048;28;20394;-70
2023/05/13 02:19:04;;;;;;;14.15;7.50;;;;;;;;;;5052300;28;20041;-70
2023/05/13 02:21:31;;;;;;;10.45;6.72;;;;;;;;;;5052477;28;20021;-70
2023/05/13 02:23:56;;;;;;;10.75;6.78;;;;;;;;;;5047629;28;20041;-70
2023/05/13 02:26:22;;;;;;;12.77;7.32;;;;;;;;;;5050988;28;20020;-70
2023/05/13 02:28:49;;;;;;;10.75;7.55;;;;;;;;;;5052157;28;20032;-70
2023/05/13 02:31:15;;;;;;;14.60;7.57;;;;;;;;;;5052493;28;20044;-70
2023/05/13 02:33:42;;;;;;;13.82;6.88;;;;;;;;;;5036101;28;20102;-70
2023/05/13 02:36:08;;;;;;;14.85;7.43;;;;;;;;;;5053961;28;20021;-70
2023/05/13 02:38:35;;;;;;;11.68;7.03;;;;;;;;;;5035676;28;20057;-70
2023/05/13 02:41:01;;;;;;;11.73;6.70;;;;;;;;;;5038481;28;20017;-70
2023/05/13 02:43:28;;;;;;;10.23;6.18;;;;;;;;;;5033833;28;20030;-70
2023/05/13 02:45:59;;;;;;;12.80;6.40;;;;;;;;;;5052422;28;20021;-70
2023/05/13 02:48:25;;;;;;;9.55;6.07;;;;;;;;;;5053146;28;20025;-71
2023/05/13 02:50:51;;;;;;;12.70;6.85;;;;;;;;;;5052290;28;20024;-70
2023/05/13 02:53:18;;;;;;;12.20;6.78;;;;;;;;;;5044096;28;20579;-70
2023/05/13 02:55:50;;;;;;;15.75;7.65;;;;;;;;;;5041513;28;20102;-70
2023/05/13 02:58:16;;;;;;;12.93;7.13;;;;;;;;;;5038559;28;20108;-70
2023/05/13 03:00:42;;;;;;;10.05;6.97;;;;;;;;;;5053232;28;20017;-70
2023/05/13 03:03:08;;;;;;;11.93;7.13;;;;;;;;;;5037222;28;20059;-70
2023/05/13 03:05:33;;;;;;;11.95;7.25;;;;;;;;;;5051523;28;20029;-70
2023/05/13 03:07:59;;;;;;;12.18;7.30;;;;;;;;;;5039680;28;20033;-70
2023/05/13 03:10:25;;;;;;;19.65;7.65;;;;;;;;;;5049891;28;20108;-71
2023/05/13 03:12:50;;;;;;;15.20;7.75;;;;;;;;;;5039442;28;20052;-70
2023/05/13 03:15:16;;;;;;;20.00;7.85;;;;;;;;;;5047857;28;20024;-70
2023/05/13 03:17:43;;;;;;;20.80;8.68;;;;;;;;;;5035262;28;20032;-70
2023/05/13 03:20:10;;;;;;;17.30;8.65;;;;;;;;;;5052936;28;20378;-70
2023/05/13 03:22:39;;;;;;;14.50;7.50;;;;;;;;;;5051585;28;20033;-70
2023/05/13 03:25:06;;;;;;;15.90;8.05;;;;;;;;;;5051494;28;20024;-71
2023/05/13 03:27:39;;;;;;;;;;;;;;;;;;5053145;28;20047;-70
2023/05/13 03:30:06;;;;;;;14.32;8.02;;;;;;;;;;5051221;28;19934;-71
2023/05/13 03:32:38;;;;;;;9.13;7.20;;;;;;;;;;5060645;28;20086;-70
2023/05/13 03:35:05;;;;;;;13.02;7.63;;;;;;;;;;5051526;28;20032;-70
2023/05/13 03:37:31;;;;;;;12.15;7.80;;;;;;;;;;5051044;28;20025;-71
2023/05/13 03:39:57;;;;;;;16.90;7.63;;;;;;;;;;5050793;28;20025;-70
2023/05/13 03:42:23;;;;;;;16.02;7.25;;;;;;;;;;5043211;28;20024;-70
2023/05/13 03:44:50;;;;;;;13.48;7.07;;;;;;;;;;5043604;28;20029;-70
2023/05/13 03:47:16;;;;;;;26.35;8.60;;;;;;;;;;5019077;28;20364;-70
2023/05/13 03:49:42;;;;;;;27.58;7.57;;;;;;;;;;5050054;28;20037;-71
2023/05/13 03:52:08;;;;;;;13.02;7.68;;;;;;;;;;5047964;28;20064;-71
2023/05/13 03:54:34;;;;;;;17.33;7.95;;;;;;;;;;5032735;28;20117;-70
2023/05/13 03:57:00;;;;;;;15.52;7.70;;;;;;;;;;5050603;28;20115;-70
2023/05/13 03:59:26;;;;;;;19.27;6.85;;;;;;;;;;5051379;28;20601;-70
2023/05/13 04:01:52;;;;;;;12.20;7.18;;;;;;;;;;5052385;28;20040;-70
2023/05/13 04:04:17;;;;;;;13.60;6.85;;;;;;;;;;5047078;28;20033;-71
2023/05/13 04:06:43;;;;;;;21.55;7.70;;;;;;;;;;5052563;28;20128;-71
2023/05/13 04:09:09;;;;;;;12.32;6.57;;;;;;;;;;5052041;28;20048;-70
2023/05/13 04:11:34;;;;;;;18.27;6.70;;;;;;;;;;5050914;28;20036;-70
2023/05/13 04:14:00;;;;;;;10.50;5.68;;;;;;;;;;5037487;28;20029;-71
2023/05/13 04:16:26;;;;;;;20.75;7.72;;;;;;;;;;5036333;28;20025;-71
2023/05/13 04:18:52;;;;;;;9.88;6.28;;;;;;;;;;5050837;28;20083;-70
2023/05/13 04:21:19;;;;;;;13.32;7.15;;;;;;;;;;5025437;28;20092;-71
2023/05/13 04:23:47;;;;;;;9.30;5.60;;;;;;;;;;5042262;28;20033;-71
2023/05/13 04:26:13;;;;;;;8.13;5.70;;;;;;;;;;5051689;28;20074;-71
2023/05/13 04:28:39;;;;;;;10.50;5.35;;;;;;;;;;5050466;28;20044;-71
2023/05/13 04:31:04;;;;;;;11.77;5.47;;;;;;;;;;5042262;28;20024;-70
2023/05/13 04:33:33;;;;;;;8.07;5.13;;;;;;;;;;5050533;28;20036;-70
2023/05/13 04:35:59;;;;;;;9.68;4.82;;;;;;;;;;5050480;28;20275;-70
2023/05/13 04:38:25;;;;;;;8.70;5.13;;;;;;;;;;5049894;28;20072;-72
2023/05/13 04:40:51;;;;;;;10.73;5.18;;;;;;;;;;5046836;28;20053;-70
2023/05/13 04:43:22;;;;;;;9.88;4.90;;;;;;;;;;5030597;28;20038;-70
2023/05/13 04:45:55;;;;;;;9.23;4.88;;;;;;;;;;5042840;28;20111;-70
2023/05/13 04:48:21;;;;;;;9.05;4.22;;;;;;;;;;5034051;28;20586;-70
2023/05/13 04:50:47;;;;;;;8.95;4.60;;;;;;;;;;5032905;28;20021;-70
2023/05/13 04:53:14;;;;;;;11.15;4.88;;;;;;;;;;5035107;28;20033;-73
2023/05/13 04:55:40;;;;;;;15.25;5.38;;;;;;;;;;5049700;28;20469;-74
2023/05/13 04:58:06;;;;;;;8.85;4.47;;;;;;;;;;5049820;28;20031;-74
2023/05/13 05:00:34;;;;;;;9.65;4.95;;;;;;;;;;5049690;28;20055;-74
2023/05/13 05:03:00;;;;;;;6.05;4.38;;;;;;;;;;5066522;28;20556;-74
2023/05/13 05:05:26;;;;;;;8.90;4.97;;;;;;;;;;5032894;28;20025;-73
2023/05/13 05:07:52;;;;;;;11.10;5.38;;;;;;;;;;5037944;28;20507;-75
2023/05/13 05:10:19;;;;;;;8.63;4.88;;;;;;;;;;5045211;28;20430;-74
2023/05/13 05:12:50;;;;;;;8.82;5.03;;;;;;;;;;5038102;28;20044;-74
2023/05/13 05:15:16;;;;;;;8.80;4.38;;;;;;;;;;5036875;28;20112;-75
2023/05/13 05:17:47;;;;;;;15.95;5.45;;;;;;;;;;5049434;28;20029;-74
2023/05/13 05:20:13;;;;;;;13.27;5.43;;;;;;;;;;5034975;28;20037;-74
2023/05/13 05:22:40;;;;;;;8.73;4.85;;;;;;;;;;5047935;28;20091;-74
2023/05/13 05:25:08;;;;;;;12.73;5.32;;;;;;;;;;5049636;28;20029;-75
2023/05/13 05:27:34;;;;;;;8.98;5.05;;;;;;;;;;5041416;28;20029;-73
2023/05/13 05:30:00;;;;;;;10.20;5.10;;;;;;;;;;5044923;28;20021;-73
2023/05/13 05:32:26;;;;;;;15.80;5.72;;;;;;;;;;5047925;28;20040;-73
2023/05/13 05:34:52;;;;;;;10.35;5.45;;;;;;;;;;5042064;28;20029;-73
2023/05/13 05:37:17;;;;;;;10.82;5.28;;;;;;;;;;5033724;28;20175;-74
2023/05/13 05:39:43;;;;;;;9.10;4.90;;;;;;;;;;5044009;28;20033;-74
2023/05/13 05:42:09;;;;;;;8.48;4.90;;;;;;;;;;5039455;28;20438;-73
2023/05/13 05:44:35;;;;;;;8.98;4.35;;;;;;;;;;5044043;28;20029;-73
2023/05/13 05:47:01;;;;;;;11.05;4.93;;;;;;;;;;5053269;28;20017;-73
2023/05/13 05:49:27;;;;;;;7.95;4.97;;;;;;;;;;5045328;28;20092;-72
2023/05/13 05:51:53;;;;;;;8.73;4.15;;;;;;;;;;5046312;28;20017;-72
2023/05/13 05:54:20;;;;;;;8.43;3.92;;;;;;;;;;5048156;28;20044;-73
2023/05/13 05:56:46;;;;;;;8.45;4.47;;;;;;;;;;5034659;28;20034;-72
2023/05/13 05:59:12;;;;;;;10.77;4.30;;;;;;;;;;5068775;28;20032;-72
2023/05/13 06:01:38;;;;;;;13.52;5.55;;;;;;;;;;5039978;28;20025;-73
2023/05/13 06:04:05;;;;;;;8.93;5.20;;;;;;;;;;5052719;28;20079;-73
2023/05/13 06:06:31;;;;;;;11.77;4.70;;;;;;;;;;5049487;28;20053;-73
2023/05/13 06:08:58;;;;;;;7.32;4.00;;;;;;;;;;5040125;28;20041;-72
2023/05/13 06:11:24;;;;;;;13.68;4.85;;;;;;;;;;5044123;28;20075;-73
2023/05/13 06:13:50;;;;;;;9.65;4.35;;;;;;;;;;5045473;28;20490;-72
2023/05/13 06:16:16;;;;;;;10.55;3.58;;;;;;;;;;5049114;28;20044;-72
2023/05/13 06:18:42;;;;;;;10.30;4.35;;;;;;;;;;5051957;28;20490;-72
2023/05/13 06:21:08;;;;;;;7.28;3.92;;;;;;;;;;5049195;28;20048;-73
2023/05/13 06:23:33;;;;;;;6.53;3.58;;;;;;;;;;5050347;28;20036;-72
2023/05/13 06:25:59;;;;;;;7.40;3.78;;;;;;;;;;5053387;28;20021;-73
2023/05/13 06:28:25;;;;;;;6.80;3.97;;;;;;;;;;5035854;28;20044;-72
2023/05/13 06:30:52;;;;;;;9.35;4.03;;;;;;;;;;5051205;28;20462;-73
2023/05/13 06:33:18;;;;;;;4.93;2.40;;;;;;;;;;5051786;28;20029;-72
2023/05/13 06:35:46;;;;;;;5.05;2.40;;;;;;;;;;5037760;28;20025;-74
2023/05/13 06:38:16;;;;;;;4.75;3.00;;;;;;;;;;5045469;28;20029;-74
2023/05/13 06:40:44;;;;;;;5.80;2.53;;;;;;;;;;5042134;28;20028;-74
2023/05/13 06:43:13;;;;;;;7.57;3.00;;;;;;;;;;5050611;28;20398;-74
2023/05/13 06:45:44;;;;;;;7.25;2.90;;;;;;;;;;5051815;28;20470;-72
2023/05/13 06:48:10;;;;;;;8.38;2.80;;;;;;;;;;5052735;28;20053;-74
2023/05/13 06:50:36;;;;;;;7.95;3.08;;;;;;;;;;5051499;28;20060;-75
2023/05/13 06:53:02;;;;;;;4.57;2.20;;;;;;;;;;5051905;28;20113;-75
2023/05/13 06:55:28;;;;;;;4.68;2.10;;;;;;;;;;5051814;28;20457;-76
2023/05/13 06:57:55;;;;;;;4.88;2.13;;;;;;;;;;5052819;28;20418;-76
2023/05/13 07:00:21;;;;;;;7.43;2.47;;;;;;;;;;5053285;28;20036;-74
2023/05/13 07:02:46;;;;;;;6.82;2.40;;;;;;;;;;5052350;28;20029;-75
2023/05/13 07:05:12;;;;;;;10.70;2.63;;;;;;;;;;5053009;28;20017;-75
2023/05/13 07:07:38;;;;;;;4.95;2.33;;;;;;;;;;5051943;28;20399;-73
2023/05/13 07:10:04;;;;;;;3.50;1.98;;;;;;;;;;5052722;28;20020;-73
2023/05/13 07:12:30;;;;;;;6.13;2.30;;;;;;;;;;5052676;28;20098;-73
2023/05/13 07:14:55;;;;;;;5.53;2.00;;;;;;;;;;5052834;28;20017;-76
2023/05/13 07:17:21;;;;;;;4.65;2.40;;;;;;;;;;5052828;28;20033;-74
2023/05/13 07:19:47;;;;;;;7.15;2.70;;;;;;;;;;5052314;28;20029;-74
2023/05/13 07:22:12;;;;;;;5.13;2.47;;;;;;;;;;5052839;28;20045;-76
2023/05/13 07:24:39;;;;;;;7.60;2.33;;;;;;;;;;5052159;28;20094;-75
2023/05/13 07:27:05;;;;;;;4.07;2.28;;;;;;;;;;5051843;28;20041;-75
2023/05/13 07:29:31;;;;;;;4.35;2.47;;;;;;;;;;5050470;28;20418;-75
2023/05/13 07:31:57;;;;;;;4.50;2.42;;;;;;;;;;5052279;28;20470;-75
2023/05/13 07:34:22;;;;;;;5.18;2.67;;;;;;;;;;5052386;28;20086;-76
2023/05/13 07:36:48;;;;;;;4.45;2.38;;;;;;;;;;5051457;28;20048;-75
2023/05/13 07:39:13;;;;;;;5.90;2.70;;;;;;;;;;5067191;28;20032;-74
2023/05/13 07:41:39;;;;;;;4.97;2.83;;;;;;;;;;5051936;28;20068;-75
2023/05/13 07:44:10;;;;;;;6.10;2.70;;;;;;;;;;5052111;28;20429;-73
2023/05/13 07:46:36;;;;;;;7.85;2.97;;;;;;;;;;5051279;28;20475;-74
2023/05/13 07:49:05;;;;;;;7.10;2.85;;;;;;;;;;5063796;28;20028;-74
2023/05/13 07:51:31;;;;;;;5.47;2.35;;;;;;;;;;5048903;28;20029;-75
2023/05/13 07:53:57;;;;;;;4.05;2.25;;;;;;;;;;5051547;28;20437;-73
2023/05/13 07:56:23;;;;;;;4.82;2.42;;;;;;;;;;5051198;28;20490;-75
2023/05/13 07:58:49;;;;;;;8.48;2.85;;;;;;;;;;5051753;28;20447;-73
2023/05/13 08:01:15;;;;;;;6.60;2.80;;;;;;;;;;5051523;28;20033;-74
2023/05/13 08:03:41;;;;;;;4.53;2.45;;;;;;;;;;5051820;28;20087;-76
2023/05/13 08:06:07;;;;;;;5.97;3.30;;;;;;;;;;5052319;28;20036;-72
2023/05/13 08:08:32;;;;;;;7.30;3.13;;;;;;;;;;5067032;28;20078;-75
2023/05/13 08:10:58;;;;;;;4.82;2.97;;;;;;;;;;5051871;28;20041;-74
2023/05/13 08:13:24;;;;;;;4.20;2.70;;;;;;;;;;5052090;28;20028;-74
2023/05/13 08:15:51;;;;;;;8.20;3.42;;;;;;;;;;5051708;28;20035;-74
2023/05/13 08:18:17;;;;;;;4.95;2.95;;;;;;;;;;5051216;28;20032;-74
2023/05/13 08:20:42;;;;;;;5.28;2.95;;;;;;;;;;5051385;28;20056;-74
2023/05/13 08:23:08;;;;;;;7.22;3.10;;;;;;;;;;5046536;28;20021;-75
2023/05/13 08:25:34;;;;;;;4.60;2.60;;;;;;;;;;5050893;28;20036;-75
2023/05/13 08:28:00;;;;;;;5.88;3.00;;;;;;;;;;5051421;28;20103;-75
2023/05/13 08:30:26;;;;;;;4.53;2.70;;;;;;;;;;5040497;28;20129;-75
2023/05/13 08:32:52;;;;;;;6.20;2.80;;;;;;;;;;5050636;28;20461;-75
2023/05/13 08:35:18;;;;;;;3.72;2.70;;;;;;;;;;5051507;28;20206;-76
2023/05/13 08:37:43;;;;;;;6.68;2.38;;;;;;;;;;5051139;28;20029;-76
2023/05/13 08:40:10;;;;;;;5.70;2.78;;;;;;;;;;5051303;28;20548;-76
2023/05/13 08:42:38;;;;;;;5.95;3.17;;;;;;;;;;5050966;28;20032;-75
2023/05/13 08:45:07;;;;;;;4.65;3.00;;;;;;;;;;5051486;28;20024;-73
2023/05/13 08:47:55;;;;;;;5.50;3.10;;;;;;;;;;5051432;28;20035;-73
2023/05/13 08:50:22;;;;;;;5.10;3.05;;;;;;;;;;5051558;28;20094;-74
2023/05/13 08:52:51;;;;;;;5.55;2.78;;;;;;;;;;5051159;28;20056;-75
2023/05/13 08:55:18;;;;;;;3.38;2.47;;;;;;;;;;5044645;28;20032;-73
2023/05/13 08:57:44;;;;;;;4.43;2.70;;;;;;;;;;5048807;28;20479;-73
2023/05/13 09:00:10;;;;;;;5.90;2.92;;;;;;;;;;5050688;28;20029;-75
2023/05/13 09:02:36;;;;;;;10.93;2.67;;;;;;;;;;5051987;28;20032;-73
2023/05/13 09:05:07;;;;;;;8.07;3.08;;;;;;;;;;5049331;28;20033;-72
2023/05/13 09:07:35;;;;;;;5.50;3.08;;;;;;;;;;5049550;28;20128;-73
2023/05/13 09:10:02;;;;;;;6.40;3.00;;;;;;;;;;5064969;28;20033;-73
2023/05/13 09:12:57;;;;;;;4.57;2.60;;;;;;;;;;5050692;28;20036;-72
2023/05/13 09:15:25;;;;;;;5.05;2.58;;;;;;;;;;5040408;28;20045;-72
2023/05/13 09:17:55;;;;;;;9.02;2.75;;;;;;;;;;5042936;28;20021;-73
2023/05/13 09:20:24;;;;;;;13.13;2.92;;;;;;;;;;5047460;28;20040;-75
2023/05/13 09:22:58;;;;;;;5.45;2.60;;;;;;;;;;5050184;28;20113;-74
2023/05/13 09:25:26;;;;;;;4.75;3.45;;;;;;;;;;5050190;28;20162;-74
2023/05/13 09:27:57;;;;;;;7.03;3.10;;;;;;;;;;5050196;28;20382;-74
2023/05/13 09:30:35;;;;;;;4.03;2.55;;;;;;;;;;5049956;28;20055;-72
2023/05/13 09:33:08;;;;;;;5.72;2.92;;;;;;;;;;5049893;28;20044;-72
2023/05/13 09:35:40;;;;;;;3.50;2.47;;;;;;;;;;5050417;28;20064;-72
2023/05/13 09:38:16;;;;;;;6.88;2.55;;;;;;;;;;5050173;28;20119;-74
2023/05/13 09:40:53;;;;;;;6.05;2.60;;;;;;;;;;5050587;28;20060;-72
2023/05/13 09:43:23;;;;;;;6.47;2.63;;;;;;;;;;5043594;28;20053;-73
2023/05/13 09:46:03;;;;;;;4.28;2.50;;;;;;;;;;5049040;28;20037;-73
2023/05/13 09:48:31;;;;;;;6.28;2.47;;;;;;;;;;5050976;28;20040;-73
2023/05/13 09:50:58;;;;;;;5.20;2.72;;;;;;;;;;5047469;28;20785;-73
2023/05/13 09:53:25;;;;;;;6.07;2.70;;;;;;;;;;5049812;28;20029;-73
2023/05/13 09:55:52;;;;;;;5.03;2.50;;;;;;;;;;5049605;28;20512;-73
2023/05/13 09:58:23;;;;;;;6.43;3.90;;;;;;;;;;5060880;28;20205;-74
2023/05/13 10:00:50;;;;;;;4.10;2.40;;;;;;;;;;5031211;28;20060;-74
2023/05/13 10:03:16;;;;;;;6.35;2.65;;;;;;;;;;5046293;28;20494;-73
2023/05/13 10:05:42;;;;;;;6.93;2.85;;;;;;;;;;5039493;28;20037;-74
2023/05/13 10:08:10;;;;;;;5.55;2.75;;;;;;;;;;5050558;28;20013;-73
2023/05/13 10:10:37;;;;;;;5.50;2.70;;;;;;;;;;5050835;28;20073;-73
2023/05/13 10:13:07;;;;;;;6.28;3.45;;;;;;;;;;5050623;28;20479;-73
2023/05/13 10:15:38;;;;;;;7.20;2.67;;;;;;;;;;5051170;28;20041;-75
2023/05/13 10:18:05;;;;;;;42.35;24.30;;;;;;;;;;5050918;28;20376;-74
2023/05/13 10:20:31;;;;;;;7.20;4.45;;;;;;;;;;5054182;28;20055;-74
2023/05/13 10:22:57;;;;;;;9.05;5.55;;;;;;;;;;5052488;28;20040;-72
2023/05/13 10:25:23;;;;;;;18.35;9.95;;;;;;;;;;5054535;28;20024;-74
2023/05/13 10:27:50;;;;;;;4.90;3.08;;;;;;;;;;5052480;28;20040;-74
2023/05/13 10:30:16;;;;;;;6.35;2.75;;;;;;;;;;5052987;28;20017;-74
2023/05/13 10:32:42;;;;;;;7.90;2.72;;;;;;;;;;5054033;28;20033;-75
2023/05/13 10:35:12;;;;;;;5.15;2.72;;;;;;;;;;5053770;28;20044;-74
2023/05/13 10:37:53;;;;;;;5.30;2.53;;;;;;;;;;5053968;28;20051;-74
2023/05/13 10:40:31;;;;;;;6.25;2.97;;;;;;;;;;5052248;28;20112;-75
2023/05/13 10:43:23;;;;;;;6.00;2.55;;;;;;;;;;5053767;28;20072;-73
2023/05/13 10:45:55;;;;;;;6.82;2.85;;;;;;;;;;5051820;28;20090;-74
2023/05/13 10:48:21;;;;;;;8.50;2.88;;;;;;;;;;5053646;28;20075;-75
2023/05/13 10:50:55;;;;;;;7.40;2.88;;;;;;;;;;5053171;28;20031;-74
2023/05/13 10:53:29;;;;;;;5.88;2.78;;;;;;;;;;5051378;28;20212;-73
2023/05/13 10:55:58;;;;;;;7.28;4.00;;;;;;;;;;5053580;28;20508;-73
2023/05/13 10:58:32;;;;;;;6.63;2.50;;;;;;;;;;5053239;28;20540;-73
2023/05/13 11:01:14;;;;;;;8.80;3.20;;;;;;;;;;5053406;28;20108;-74
2023/05/13 11:03:48;;;;;;;4.10;2.42;;;;;;;;;;5043521;28;20040;-74
2023/05/13 11:06:20;;;;;;;10.13;3.08;;;;;;;;;;5045758;28;20574;-72
2023/05/13 11:08:50;;;;;;;6.90;2.70;;;;;;;;;;5053119;28;20440;-73
2023/05/13 11:11:22;;;;;;;8.65;2.65;;;;;;;;;;5052887;28;20060;-73
2023/05/13 11:14:18;;;;;;;7.75;2.60;;;;;;;;;;5052930;28;20032;-73
2023/05/13 11:16:46;;;;;;;4.78;2.47;;;;;;;;;;5051617;28;20112;-73
2023/05/13 11:19:20;;;;;;;6.55;2.72;;;;;;;;;;5044434;28;20024;-73
2023/05/13 11:21:50;;;;;;;5.20;2.90;;;;;;;;;;5052176;28;20043;-74
2023/05/13 11:24:17;;;;;;;6.07;3.65;;;;;;;;;;5052378;28;20096;-74
2023/05/13 11:26:57;;;;;;;6.35;2.38;;;;;;;;;;5052599;28;20494;-76
2023/05/13 11:29:34;;;;;;;9.15;3.13;;;;;;;;;;5050527;28;20112;-74
2023/05/13 11:32:02;;;;;;;5.60;2.45;;;;;;;;;;5052413;28;20116;-73
2023/05/13 11:34:29;;;;;;;7.80;3.08;;;;;;;;;;5052608;28;20024;-75
2023/05/13 11:37:06;;;;;;;5.55;2.85;;;;;;;;;;5048815;28;20033;-73
2023/05/13 11:39:32;;;;;;;7.13;3.28;;;;;;;;;;5051043;28;20039;-74
2023/05/13 11:42:00;;;;;;;4.25;2.65;;;;;;;;;;5052605;28;20024;-75
2023/05/13 11:44:27;;;;;;;10.10;4.35;;;;;;;;;;5051500;28;20040;-76
2023/05/13 11:47:06;;;;;;;5.00;2.83;;;;;;;;;;5052603;28;20381;-72
2023/05/13 11:49:32;;;;;;;5.47;3.03;;;;;;;;;;5036060;28;20399;-73
2023/05/13 11:51:59;;;;;;;4.13;2.65;;;;;;;;;;5051087;28;20029;-74
2023/05/13 11:54:26;;;;;;;9.43;2.75;;;;;;;;;;5052367;28;20514;-72
2023/05/13 11:56:51;;;;;;;6.05;2.72;;;;;;;;;;5049092;28;20056;-71
2023/05/13 11:59:17;;;;;;;6.40;2.67;;;;;;;;;;5052973;28;20060;-75
2023/05/13 12:01:43;;;;;;;7.65;5.28;;;;;;;;;;5051782;28;20017;-73
2023/05/13 12:04:09;;;;;;;4.65;2.42;;;;;;;;;;5044217;28;20398;-74
2023/05/13 12:06:42;;;;;;;4.20;2.90;;;;;;;;;;5052323;28;20085;-74
2023/05/13 12:09:10;;;;;;;3.20;2.03;;;;;;;;;;5050909;28;20039;-73
2023/05/13 12:11:36;;;;;;;5.10;2.50;;;;;;;;;;5052573;28;20021;-73
2023/05/13 12:14:03;;;;;;;7.75;4.95;;;;;;;;;;5033747;28;20037;-74
2023/05/13 12:16:28;;;;;;;5.75;2.50;;;;;;;;;;5052246;28;20494;-74
2023/05/13 12:19:05;;;;;;;5.32;2.40;;;;;;;;;;5051112;28;20506;-73
2023/05/13 12:21:31;;;;;;;5.75;2.78;;;;;;;;;;5051348;28;20103;-75
2023/05/13 12:23:57;;;;;;;5.65;2.92;;;;;;;;;;5050560;28;20482;-74
2023/05/13 12:26:24;;;;;;;6.22;2.50;;;;;;;;;;5051547;28;20079;-73
2023/05/13 12:28:59;;;;;;;5.70;2.90;;;;;;;;;;5051674;28;20017;-75
2023/05/13 12:32:02;;;;;;;4.90;2.30;;;;;;;;;;5050324;28;20062;-75
2023/05/13 12:34:32;;;;;;;12.80;7.70;;;;;;;;;;5051322;28;20033;-76
2023/05/13 12:37:11;;;;;;;4.60;2.50;;;;;;;;;;5052239;28;20113;-75
2023/05/13 12:39:38;;;;;;;7.20;2.63;;;;;;;;;;5050844;28;20047;-76
2023/05/13 12:42:06;;;;;;;10.90;6.85;;;;;;;;;;5051149;28;20027;-80
2023/05/13 12:44:32;;;;;;;7.00;2.80;;;;;;;;;;5057665;28;20039;-76
2023/05/13 12:46:59;;;;;;;4.28;2.40;;;;;;;;;;5056234;28;20029;-79
2023/05/13 12:49:25;;;;;;;7.05;2.30;;;;;;;;;;5054199;28;20033;-76
2023/05/13 12:51:51;;;;;;;4.53;2.28;;;;;;;;;;5056623;28;20108;-77
2023/05/13 12:54:17;;;;;;;4.32;2.20;;;;;;;;;;5055298;28;20033;-76
2023/05/13 12:56:43;;;;;;;5.60;2.35;;;;;;;;;;5053871;28;20094;-77
2023/05/13 12:59:09;;;;;;;8.27;2.50;;;;;;;;;;5052201;28;20194;-79
2023/05/13 13:01:35;;;;;;;6.78;2.90;;;;;;;;;;5051582;28;20102;-77
2023/05/13 13:04:01;;;;;;;6.30;2.47;;;;;;;;;;5051410;28;20044;-75
2023/05/13 13:06:28;;;;;;;6.40;2.45;;;;;;;;;;5052194;28;20044;-76
2023/05/13 13:08:54;;;;;;;3.45;1.92;;;;;;;;;;5050384;28;20410;-78
2023/05/13 13:11:20;;;;;;;4.43;2.20;;;;;;;;;;5051529;28;20478;-78
2023/05/13 13:13:48;;;;;;;3.85;2.33;;;;;;;;;;5051230;28;20441;-78
2023/05/13 13:16:14;;;;;;;3.58;2.30;;;;;;;;;;5046987;28;20060;-76
2023/05/13 13:18:40;;;;;;;4.78;2.30;;;;;;;;;;5050621;28;20418;-78
2023/05/13 13:21:07;;;;;;;4.28;2.20;;;;;;;;;;5050412;28;20474;-77
2023/05/13 13:23:33;;;;;;;5.53;2.50;;;;;;;;;;5046127;28;20036;-76
2023/05/13 13:26:00;;;;;;;5.18;2.05;;;;;;;;;;5049387;28;20075;-76
2023/05/13 13:28:26;;;;;;;6.50;2.67;;;;;;;;;;5050737;28;20040;-78
2023/05/13 13:30:52;;;;;;;4.57;2.50;;;;;;;;;;5053029;28;20036;-78
2023/05/13 13:33:18;;;;;;;11.43;2.80;;;;;;;;;;5051799;28;20037;-76
2023/05/13 13:35:45;;;;;;;6.25;2.20;;;;;;;;;;5052035;28;20033;-78
2023/05/13 13:38:12;;;;;;;9.63;2.90;;;;;;;;;;5059368;28;20126;-76
2023/05/13 13:40:38;;;;;;;8.57;2.60;;;;;;;;;;5053416;28;20108;-77
2023/05/13 13:43:05;;;;;;;4.80;2.10;;;;;;;;;;5051883;28;20040;-76
2023/05/13 13:45:31;;;;;;;5.85;2.10;;;;;;;;;;5051720;28;20482;-76
2023/05/13 13:47:58;;;;;;;8.57;2.67;;;;;;;;;;5049706;28;20470;-75
2023/05/13 13:50:24;;;;;;;5.78;2.25;;;;;;;;;;5051254;28;20017;-76
2023/05/13 13:52:51;;;;;;;6.40;2.22;;;;;;;;;;5052981;28;20041;-76
2023/05/13 13:55:21;;;;;;;5.75;2.60;;;;;;;;;;5067359;28;20025;-76
2023/05/13 13:57:47;;;;;;;5.78;2.60;;;;;;;;;;5050870;28;20041;-77
2023/05/13 14:00:14;;;;;;;7.78;2.63;;;;;;;;;;5054452;28;20025;-76
2023/05/13 14:02:42;;;;;;;7.15;2.35;;;;;;;;;;5052405;28;20025;-76
2023/05/13 14:05:08;;;;;;;5.93;2.30;;;;;;;;;;5040633;28;20115;-74
2023/05/13 14:07:35;;;;;;;5.03;2.15;;;;;;;;;;5051640;28;20033;-75
2023/05/13 14:10:01;;;;;;;8.27;2.60;;;;;;;;;;5049793;28;20028;-75
2023/05/13 14:12:26;;;;;;;6.20;2.30;;;;;;;;;;5053735;28;20040;-74
2023/05/13 14:14:52;;;;;;;5.38;2.38;;;;;;;;;;5052173;28;20498;-76
2023/05/13 14:17:18;;;;;;;7.43;2.60;;;;;;;;;;5053641;28;20037;-74
2023/05/13 14:19:44;;;;;;;3.50;2.10;;;;;;;;;;5053897;28;20055;-74
2023/05/13 14:22:10;;;;;;;10.50;2.63;;;;;;;;;;5053021;28;20543;-74
2023/05/13 14:24:35;;;;;;;9.38;2.78;;;;;;;;;;5048281;28;20029;-73
2023/05/13 14:27:01;;;;;;;6.93;2.95;;;;;;;;;;5053709;28;20063;-76
2023/05/13 14:29:27;;;;;;;10.40;2.85;;;;;;;;;;5053320;28;20023;-75
2023/05/13 14:31:53;;;;;;;5.95;2.55;;;;;;;;;;5051966;28;20041;-75
2023/05/13 14:34:18;;;;;;;8.52;2.63;;;;;;;;;;5054053;28;20098;-74
2023/05/13 14:36:44;;;;;;;9.75;2.75;;;;;;;;;;5053283;28;20060;-76
2023/05/13 14:39:11;;;;;;;5.60;2.78;;;;;;;;;;5052775;28;20486;-75
2023/05/13 14:41:36;;;;;;;4.00;2.30;;;;;;;;;;5047094;28;20454;-74